OOSH

Sohar Airport

Sohar, Oman
TAF OOSH 192300Z 2000/2106 VRB02KT 8000 NSC BECMG 2005/2007 06010KT BECMG 2013/2015 VRB02KT
Issued Valid From Valid To
Sep-19 @ 23:00 UTC
(2 hours ago)
Sep-20 @ 00:00 UTC
(an hour ago)
Sep-21 @ 06:00 UTC
(-1 days ago)
Sep-20 @ 00:00 to Sep-20 @ 05:00
TAF OOSH 192300Z 2000/2106 VRB02KT 8000 NSC
Wind Visibility Clouds
Variable at 2 knots 7,998 meters
  • No significant clouds
Becoming Sep-20 @ 05:00 to Sep-20 @ 13:00
BECMG 2005/2007 06010KT
Wind Visibility Clouds
60° at 10 knots 7,998 meters
  • No significant clouds
Becoming Sep-20 @ 13:00 to Sep-21 @ 06:00
BECMG 2013/2015 VRB02KT
Wind Visibility Clouds
Variable at 2 knots 7,998 meters
  • No significant clouds
TAF OOSH 192300Z 2000/2106 VRB02KT 8000 NSC BECMG 2005/2007 06010KT BECMG 2013/2015 VRB02KT
Issued Sep-19 @ 23:00 UTC
(2 hours ago)
Valid From Sep-20 @ 00:00 UTC
(an hour ago)
Valid To Sep-21 @ 06:00 UTC
(-1 days ago)
Sep-20 @ 00:00 - Sep-20 @ 05:00
Wind Visibility
Variable at 2 knots 7,998 meters
Clouds
  • No significant clouds
Becoming Sep-20 @ 05:00 - Sep-20 @ 13:00
Wind Visibility
60° at 10 knots 7,998 meters
Clouds
  • No significant clouds
Becoming Sep-20 @ 13:00 - Sep-21 @ 06:00
Wind Visibility
Variable at 2 knots 7,998 meters
Clouds
  • No significant clouds